LTBJ/ADB METAR and TAF weather

Enter ICAO airport designator
Station Type Date Time Source
LTBJ METAR 2022/07/01 01:20 UTC NOAA

LTBJ 010120Z 02008KT CAVOK 23/15 Q1008 NOSIG


Station Type Date Time Source
LTBJ Decoded METAR 2022/07/01 01:20 UTC NOAA

Izmir / Adnan Menderes, Turkey (LTBJ) 38-16N 027-09E 120M
Jun 30, 2022 - 09:20 PM EDT / 2022.07.01 0120 UTC
Wind: from the NNE (020 degrees) at 9 MPH (8 KT):0
Visibility: greater than 7 mile(s):0
Temperature: 73 F (23 C)
Dew Point: 59 F (15 C)
Relative Humidity: 60%
Pressure (altimeter): 29.77 in. Hg (1008 hPa)
ob: LTBJ 010120Z 02008KT CAVOK 23/15 Q1008 NOSIG
cycle: 1

Station Type Date Time Source
LTBJ TAF 2022/06/30 18:03 UTC NOAA

TAF LTBJ 301640Z 3018/0118 35017G27KT CAVOK
BECMG 3019/3021 35013KT
BECMG 0108/0112 36018G30KT FEW030
BECMG 0115/0118 CAVOK

Example: see airport list